Time;durP1;ratioP1;P1;durP2;ratioP2;P2;SDS_P1;SDS_P2;PMS_P1;PMS_P2;Temp;Humidity;BMP_temperature;BMP_pressure;BME280_temperature;BME280_humidity;BME280_pressure;Samples;Min_cycle;Max_cycle;Signal;HPM_P1;HPM_P2
2023/10/18 00:02:37;;;;;;;99.75;94.82;;;4.80;97.10;;;;;;4879430;29;20135;-72
2023/10/18 00:05:10;;;;;;;80.50;76.15;;;4.70;97.20;;;;;;4893928;29;20127;-72
2023/10/18 00:07:37;;;;;;;75.30;71.18;;;4.70;97.20;;;;;;4867550;29;20795;-73
2023/10/18 00:10:12;;;;;;;91.07;86.40;;;4.70;97.40;;;;;;4879408;29;20060;-73
2023/10/18 00:12:41;;;;;;;80.63;76.25;;;4.60;97.40;;;;;;4879161;29;20150;-73
2023/10/18 00:15:11;;;;;;;83.55;79.18;;;4.60;97.40;;;;;;4891512;29;20493;-73
2023/10/18 00:17:40;;;;;;;87.60;83.15;;;4.60;97.60;;;;;;4876718;29;20049;-73
2023/10/18 00:20:16;;;;;;;80.72;76.18;;;4.60;97.60;;;;;;4892724;29;20052;-73
2023/10/18 00:22:48;;;;;;;87.30;82.75;;;4.50;97.70;;;;;;4877630;29;20103;-72
2023/10/18 00:25:15;;;;;;;99.68;94.57;;;4.50;97.70;;;;;;4874107;29;20045;-73
2023/10/18 00:27:42;;;;;;;93.32;88.63;;;4.50;97.60;;;;;;4872051;29;20454;-73
2023/10/18 00:30:11;;;;;;;87.18;82.53;;;4.40;97.80;;;;;;4878917;29;20048;-73
2023/10/18 00:32:42;;;;;;;92.38;87.40;;;4.40;97.70;;;;;;4868704;29;20059;-73
2023/10/18 00:35:23;;;;;;;85.55;80.97;;;4.40;97.90;;;;;;4868955;29;20077;-73
2023/10/18 00:38:00;;;;;;;97.07;91.88;;;4.40;98.10;;;;;;4894796;29;20044;-73
2023/10/18 00:40:33;;;;;;;93.72;88.95;;;4.40;98.20;;;;;;4865422;29;20519;-73
2023/10/18 00:43:20;;;;;;;114.88;109.10;;;4.40;98.20;;;;;;4875888;29;20707;-73
2023/10/18 00:45:48;;;;;;;88.00;83.38;;;4.40;98.20;;;;;;4871888;29;20052;-73
2023/10/18 00:48:23;;;;;;;84.45;79.82;;;4.40;98.30;;;;;;4880633;29;20052;-73
2023/10/18 00:50:54;;;;;;;80.20;75.83;;;4.30;98.30;;;;;;4871212;29;20041;-73
2023/10/18 00:53:30;;;;;;;87.43;82.70;;;4.30;98.30;;;;;;4891095;29;20304;-73
2023/10/18 00:55:59;;;;;;;89.55;84.82;;;4.30;98.30;;;;;;4895616;29;20040;-73
2023/10/18 00:58:31;;;;;;;89.57;84.80;;;4.30;98.50;;;;;;4879256;29;20048;-73
2023/10/18 01:00:58;;;;;;;82.35;77.93;;;4.30;98.40;;;;;;4894770;29;20047;-73
2023/10/18 01:03:36;;;;;;;79.28;74.95;;;4.30;98.50;;;;;;4881245;29;20044;-73
2023/10/18 01:06:07;;;;;;;101.60;96.10;;;4.30;98.50;;;;;;4891837;29;20121;-71
2023/10/18 01:08:37;;;;;;;93.13;87.93;;;4.20;98.50;;;;;;4894473;29;20055;-73
2023/10/18 01:11:06;;;;;;;83.30;78.43;;;4.30;98.90;;;;;;4895103;29;20052;-73
2023/10/18 01:13:37;;;;;;;94.13;88.93;;;4.30;98.80;;;;;;4891566;29;20552;-72
2023/10/18 01:16:10;;;;;;;112.85;107.03;;;4.30;98.90;;;;;;4886895;29;20225;-72
2023/10/18 01:18:36;;;;;;;109.78;103.85;;;4.20;98.90;;;;;;4880145;29;20036;-72
2023/10/18 01:21:16;;;;;;;124.70;118.07;;;4.20;98.80;;;;;;4879000;29;20442;-72
2023/10/18 01:23:43;;;;;;;113.43;107.30;;;4.20;99.10;;;;;;4890381;29;20060;-72
2023/10/18 01:26:13;;;;;;;102.65;96.82;;;4.30;99.20;;;;;;4875780;29;20124;-72
2023/10/18 01:28:40;;;;;;;85.35;80.18;;;4.30;99.00;;;;;;4899604;29;20088;-72
2023/10/18 01:31:07;;;;;;;83.32;78.45;;;4.20;99.10;;;;;;4891501;29;20056;-72
2023/10/18 01:33:33;;;;;;;85.53;80.57;;;4.20;99.20;;;;;;4893715;29;20127;-72
2023/10/18 01:36:00;;;;;;;93.93;88.47;;;4.20;99.10;;;;;;4876202;29;20045;-72
2023/10/18 01:38:30;;;;;;;133.27;126.13;;;4.20;99.30;;;;;;4877249;29;20408;-72
2023/10/18 01:41:08;;;;;;;113.10;106.82;;;4.20;99.10;;;;;;4872494;29;20044;-71
2023/10/18 01:43:36;;;;;;;112.35;105.80;;;4.20;99.50;;;;;;4865741;29;20048;-71
2023/10/18 01:46:06;;;;;;;139.40;132.05;;;4.20;99.80;;;;;;4891940;29;20431;-71
2023/10/18 01:48:37;;;;;;;98.65;92.70;;;4.20;99.60;;;;;;4873806;29;20049;-71
2023/10/18 01:51:05;;;;;;;96.95;90.88;;;4.20;99.80;;;;;;4906104;29;20075;-73
2023/10/18 01:53:32;;;;;;;99.78;93.70;;;4.20;99.70;;;;;;4893323;29;20049;-71
2023/10/18 01:56:00;;;;;;;125.68;118.78;;;4.20;99.80;;;;;;4873394;29;20040;-72
2023/10/18 01:58:27;;;;;;;132.93;125.40;;;4.20;99.90;;;;;;4891314;29;20116;-72
2023/10/18 02:00:56;;;;;;;134.23;126.57;;;4.20;99.90;;;;;;4876362;29;20104;-72
2023/10/18 02:03:22;;;;;;;112.30;105.68;;;4.20;99.90;;;;;;4878168;29;20506;-73
2023/10/18 02:05:48;;;;;;;122.32;115.35;;;4.20;99.90;;;;;;4893687;29;20116;-72
2023/10/18 02:08:15;;;;;;;160.47;151.97;;;4.20;99.90;;;;;;4882741;29;20036;-73
2023/10/18 02:10:42;;;;;;;99.38;93.20;;;4.30;99.90;;;;;;4877149;29;20077;-72
2023/10/18 02:13:14;;;;;;;111.03;104.18;;;4.30;99.90;;;;;;4891386;29;20127;-72
2023/10/18 02:15:42;;;;;;;128.15;120.78;;;4.30;99.90;;;;;;4888260;29;20123;-74
2023/10/18 02:18:09;;;;;;;101.25;94.60;;;4.30;99.90;;;;;;4893608;29;20131;-74
2023/10/18 02:20:42;;;;;;;92.72;86.85;;;4.30;99.90;;;;;;4896881;29;20048;-74
2023/10/18 02:23:13;;;;;;;82.38;76.68;;;4.30;99.90;;;;;;4889355;29;20116;-74
2023/10/18 02:28:25;;;;;;;91.18;84.88;;;4.30;99.90;;;;;;4887990;29;20056;-74
2023/10/18 02:31:13;;;;;;;94.57;88.30;;;4.20;99.90;;;;;;4872485;29;20055;-73
2023/10/18 02:33:42;;;;;;;93.57;87.10;;;4.20;99.90;;;;;;4889533;29;20067;-72
2023/10/18 02:36:12;;;;;;;84.07;77.80;;;4.20;99.90;;;;;;4874864;29;20044;-73
2023/10/18 02:38:39;;;;;;;93.88;87.35;;;4.20;99.90;;;;;;4887270;29;20421;-73
2023/10/18 02:43:50;;;;;;;89.40;82.78;;;4.20;99.90;;;;;;4893003;29;20104;-73
2023/10/18 02:46:20;;;;;;;98.07;91.25;;;4.20;99.90;;;;;;4872464;29;20544;-74
2023/10/18 02:48:47;;;;;;;103.53;96.28;;;4.20;99.90;;;;;;4884879;29;20505;-74
2023/10/18 02:51:14;;;;;;;98.13;91.15;;;4.20;99.90;;;;;;4881462;29;20479;-74
2023/10/18 02:53:41;;;;;;;88.55;82.43;;;4.20;99.90;;;;;;4875972;29;20516;-74
2023/10/18 02:56:17;;;;;;;105.90;98.60;;;4.20;99.90;;;;;;4893164;29;20227;-74
2023/10/18 02:58:49;;;;;;;100.72;93.88;;;4.10;99.90;;;;;;4893794;29;20055;-74
2023/10/18 03:01:18;;;;;;;106.65;99.45;;;4.10;99.90;;;;;;4872468;29;20052;-74
2023/10/18 03:03:46;;;;;;;96.13;89.45;;;4.10;99.90;;;;;;4875005;29;20048;-74
2023/10/18 03:06:16;;;;;;;100.53;93.20;;;4.00;99.90;;;;;;4892434;29;20045;-74
2023/10/18 03:08:42;;;;;;;103.70;96.15;;;4.00;99.90;;;;;;4875221;29;20139;-74
2023/10/18 03:11:11;;;;;;;102.13;95.05;;;3.90;99.90;;;;;;4877961;29;20052;-74
2023/10/18 03:13:38;;;;;;;97.43;90.30;;;3.90;99.90;;;;;;4889820;29;20107;-74
2023/10/18 03:16:15;;;;;;;100.07;93.30;;;3.90;99.90;;;;;;4890087;29;20052;-74
2023/10/18 03:18:44;;;;;;;147.95;139.02;;;3.90;99.90;;;;;;4887821;29;20061;-74
2023/10/18 03:21:20;;;;;;;102.43;95.28;;;3.90;99.90;;;;;;4877823;29;20391;-75
2023/10/18 03:23:51;;;;;;;113.05;105.15;;;3.90;99.90;;;;;;4880949;29;20051;-74
2023/10/18 03:26:41;;;;;;;105.63;98.63;;;3.90;99.90;;;;;;4891287;29;20049;-74
2023/10/18 03:29:12;;;;;;;99.60;92.70;;;3.90;99.90;;;;;;4873195;29;20044;-75
2023/10/18 03:31:43;;;;;;;108.60;101.10;;;3.90;99.90;;;;;;4894997;29;20049;-75
2023/10/18 03:34:17;;;;;;;118.05;110.43;;;3.90;99.90;;;;;;4880031;29;20557;-75
2023/10/18 03:36:53;;;;;;;97.82;90.72;;;3.90;99.90;;;;;;4889633;29;20084;-75
2023/10/18 03:39:20;;;;;;;115.53;107.60;;;4.00;99.90;;;;;;4876063;29;20051;-75
2023/10/18 03:41:50;;;;;;;118.65;110.43;;;4.00;99.90;;;;;;4886502;29;20068;-75
2023/10/18 03:44:21;;;;;;;113.72;105.97;;;4.00;99.90;;;;;;4868489;29;20413;-75
2023/10/18 03:46:47;;;;;;;109.43;102.07;;;4.00;99.90;;;;;;4880795;29;20108;-75
2023/10/18 03:49:17;;;;;;;105.53;98.47;;;3.90;99.90;;;;;;4889532;29;20720;-75
2023/10/18 03:51:47;;;;;;;113.97;106.50;;;4.00;99.90;;;;;;4895299;29;20060;-75
2023/10/18 03:54:14;;;;;;;113.38;106.03;;;4.00;99.90;;;;;;4885579;29;20128;-75
2023/10/18 03:56:42;;;;;;;148.85;139.38;;;4.00;99.90;;;;;;4903492;29;20103;-75
2023/10/18 03:59:21;;;;;;;102.43;95.75;;;4.00;99.90;;;;;;4892951;29;20051;-75
2023/10/18 04:04:36;;;;;;;87.63;81.22;;;4.10;99.90;;;;;;4891009;29;20123;-75
2023/10/18 04:07:12;;;;;;;85.05;79.00;;;4.10;99.90;;;;;;4869562;29;20044;-75
2023/10/18 04:09:47;;;;;;;103.28;96.03;;;4.20;99.90;;;;;;4892485;29;20041;-75
2023/10/18 04:12:19;;;;;;;108.03;100.95;;;4.10;99.90;;;;;;4892627;29;20119;-75
2023/10/18 04:14:55;;;;;;;105.10;97.93;;;4.20;99.90;;;;;;4874259;29;20100;-75
2023/10/18 04:17:36;;;;;;;116.07;108.72;;;4.20;99.90;;;;;;4881601;29;20047;-75
2023/10/18 04:20:31;;;;;;;111.13;103.82;;;4.20;99.90;;;;;;4879964;29;20116;-75
2023/10/18 04:22:55;;;;;;;110.95;103.72;;;4.20;99.90;;;;;;4900680;29;20087;-75
2023/10/18 04:25:27;;;;;;;114.47;107.07;;;4.20;99.90;;;;;;4901318;29;20079;-75
2023/10/18 04:28:00;;;;;;;115.53;108.00;;;4.20;99.90;;;;;;4903716;29;20067;-75
2023/10/18 04:30:32;;;;;;;106.80;99.82;;;4.10;99.90;;;;;;4875077;29;20087;-75
2023/10/18 04:35:44;;;;;;;122.50;114.45;;;4.20;99.90;;;;;;4907990;29;20402;-74
2023/10/18 04:41:03;;;;;;;116.38;109.22;;;4.20;99.90;;;;;;4879597;29;20067;-74
2023/10/18 04:43:32;;;;;;;132.13;124.25;;;4.20;99.90;;;;;;4883243;29;20044;-74
2023/10/18 04:46:00;;;;;;;137.82;129.68;;;4.20;99.90;;;;;;4888433;29;20219;-74
2023/10/18 04:51:26;;;;;;;119.82;112.22;;;4.20;99.90;;;;;;4882200;29;20048;-74
2023/10/18 04:53:57;;;;;;;124.40;116.85;;;4.20;99.90;;;;;;4885439;29;20044;-74
2023/10/18 04:56:31;;;;;;;125.20;117.50;;;4.20;99.90;;;;;;4886115;29;20050;-73
2023/10/18 04:59:06;;;;;;;125.82;118.32;;;4.20;99.90;;;;;;4895580;29;20041;-74
2023/10/18 05:01:36;;;;;;;128.63;120.78;;;4.20;99.90;;;;;;4870193;29;20512;-74
2023/10/18 05:04:20;;;;;;;139.13;130.68;;;4.20;99.90;;;;;;4870843;29;20036;-74
2023/10/18 05:06:55;;;;;;;192.50;181.50;;;4.20;99.90;;;;;;4871786;29;20100;-74
2023/10/18 05:09:43;;;;;;;135.25;127.00;;;4.20;99.90;;;;;;4890825;29;20048;-74
2023/10/18 05:12:27;;;;;;;152.35;143.38;;;4.20;99.90;;;;;;4873299;29;20041;-74
2023/10/18 05:17:23;;;;;;;124.38;116.75;;;4.20;99.90;;;;;;4887545;29;20405;-74
2023/10/18 05:19:50;;;;;;;133.48;125.43;;;4.20;99.90;;;;;;4888171;29;20119;-74
2023/10/18 05:22:20;;;;;;;122.50;114.65;;;4.20;99.90;;;;;;4872810;29;20040;-74
2023/10/18 05:24:54;;;;;;;139.65;131.50;;;4.10;99.90;;;;;;4887053;29;20569;-74
2023/10/18 05:27:27;;;;;;;124.70;116.82;;;4.20;99.90;;;;;;4885712;29;20052;-74
2023/10/18 05:30:08;;;;;;;133.27;124.97;;;4.10;99.90;;;;;;4886615;29;20737;-74
2023/10/18 05:35:03;;;;;;;130.20;122.30;;;4.20;99.90;;;;;;4889322;29;20056;-74
2023/10/18 05:37:33;;;;;;;126.13;118.45;;;4.20;99.90;;;;;;4886669;29;20084;-74
2023/10/18 05:42:46;;;;;;;146.77;138.45;;;4.20;99.90;;;;;;4887688;29;20099;-74
2023/10/18 05:45:15;;;;;;;158.02;148.98;;;4.10;99.90;;;;;;4895289;29;20059;-74
2023/10/18 05:47:42;;;;;;;135.50;127.22;;;4.10;99.90;;;;;;4888609;29;20052;-75
2023/10/18 05:50:12;;;;;;;138.23;129.88;;;4.10;99.90;;;;;;4889750;29;20072;-75
2023/10/18 05:52:48;;;;;;;123.45;115.93;;;4.10;99.90;;;;;;4891135;29;20201;-75
2023/10/18 05:55:14;;;;;;;161.18;152.25;;;4.10;99.90;;;;;;4877158;29;20128;-75
2023/10/18 05:57:41;;;;;;;125.07;117.30;;;4.10;99.90;;;;;;4903826;29;20469;-75
2023/10/18 06:00:17;;;;;;;121.05;113.30;;;4.10;99.90;;;;;;4882703;29;20043;-75
2023/10/18 06:02:45;;;;;;;129.50;121.68;;;4.10;99.90;;;;;;4894034;29;20052;-75
2023/10/18 06:05:11;;;;;;;125.03;117.43;;;4.10;99.90;;;;;;4875772;29;20055;-75
2023/10/18 06:07:37;;;;;;;115.68;108.45;;;4.10;99.90;;;;;;4895692;29;20049;-75
2023/10/18 06:10:18;;;;;;;117.47;110.33;;;4.10;99.90;;;;;;4879481;29;20363;-75
2023/10/18 06:12:47;;;;;;;133.80;126.00;;;4.10;99.90;;;;;;4883025;29;20058;-75
2023/10/18 06:15:30;;;;;;;110.20;103.03;;;4.10;99.90;;;;;;4877111;29;20059;-75
2023/10/18 06:18:05;;;;;;;118.30;110.68;;;4.10;99.90;;;;;;4897019;29;20127;-75
2023/10/18 06:20:35;;;;;;;115.30;107.93;;;4.10;99.90;;;;;;4894392;29;20243;-75
2023/10/18 06:25:51;;;;;;;121.60;114.32;;;4.10;99.90;;;;;;4891359;29;20139;-75
2023/10/18 06:28:20;;;;;;;121.88;114.38;;;4.10;99.90;;;;;;4890293;29;20465;-75
2023/10/18 06:30:50;;;;;;;132.63;124.95;;;4.10;99.90;;;;;;4888835;29;20044;-75
2023/10/18 06:33:19;;;;;;;126.38;118.88;;;4.10;99.90;;;;;;4878734;29;20144;-75
2023/10/18 06:35:53;;;;;;;138.20;130.32;;;4.10;99.90;;;;;;4892701;29;20192;-75
2023/10/18 06:38:24;;;;;;;122.25;114.90;;;4.20;99.90;;;;;;4883703;29;20075;-75
2023/10/18 06:40:51;;;;;;;131.45;123.45;;;4.20;99.90;;;;;;4890773;29;20063;-75
2023/10/18 06:43:20;;;;;;;128.10;120.15;;;4.20;99.90;;;;;;4898083;29;20127;-75
2023/10/18 06:45:50;;;;;;;126.10;118.32;;;4.30;99.90;;;;;;4879271;29;20055;-75
2023/10/18 06:48:17;;;;;;;124.85;117.05;;;4.30;99.90;;;;;;4894547;29;20059;-75
2023/10/18 06:50:46;;;;;;;120.00;112.73;;;4.40;99.90;;;;;;4888167;29;20049;-75
2023/10/18 06:53:20;;;;;;;115.70;108.38;;;4.50;99.90;;;;;;4870928;29;20115;-75
2023/10/18 06:55:56;;;;;;;103.10;96.55;;;4.50;99.90;;;;;;4887022;29;20100;-74
2023/10/18 07:00:53;;;;;;;126.87;119.33;;;4.60;99.90;;;;;;4890127;29;20048;-74
2023/10/18 07:03:25;;;;;;;116.80;109.97;;;4.70;99.90;;;;;;4890611;29;20055;-74
2023/10/18 07:05:52;;;;;;;119.25;112.13;;;4.70;99.90;;;;;;4895002;29;20040;-74
2023/10/18 07:08:33;;;;;;;123.00;115.60;;;4.80;99.90;;;;;;4899934;29;20055;-74
2023/10/18 07:11:02;;;;;;;124.10;117.07;;;4.80;99.90;;;;;;4892035;29;20439;-74
2023/10/18 07:13:46;;;;;;;119.45;112.00;;;4.90;99.90;;;;;;4891579;29;20041;-74
2023/10/18 07:16:14;;;;;;;123.95;116.70;;;4.90;99.90;;;;;;4880582;29;20071;-74
2023/10/18 07:18:42;;;;;;;108.72;102.05;;;5.00;99.90;;;;;;4878916;29;20049;-74
2023/10/18 07:21:09;;;;;;;124.20;116.90;;;5.00;99.90;;;;;;4873904;29;20036;-74
2023/10/18 07:23:39;;;;;;;115.20;108.45;;;5.10;99.90;;;;;;4888455;29;20059;-74
2023/10/18 07:26:07;;;;;;;107.13;100.53;;;5.10;99.90;;;;;;4892401;29;20036;-74
2023/10/18 07:28:35;;;;;;;92.78;86.95;;;5.20;99.90;;;;;;4885432;29;20936;-74
2023/10/18 07:31:11;;;;;;;104.35;98.15;;;5.20;99.90;;;;;;4890577;29;20051;-74
2023/10/18 07:33:43;;;;;;;106.38;100.05;;;5.30;99.90;;;;;;4893011;29;20044;-74
2023/10/18 07:36:12;;;;;;;107.85;101.63;;;5.40;99.90;;;;;;4892588;29;20055;-74
2023/10/18 07:38:47;;;;;;;100.78;94.82;;;5.50;99.90;;;;;;4886703;29;20065;-74
2023/10/18 07:41:18;;;;;;;85.50;79.93;;;5.50;99.90;;;;;;4867682;29;20044;-74
2023/10/18 07:43:44;;;;;;;105.75;99.65;;;5.60;99.70;;;;;;4907606;29;20568;-74
2023/10/18 07:46:16;;;;;;;84.88;79.82;;;5.70;99.60;;;;;;4886876;29;20572;-74
2023/10/18 07:48:47;;;;;;;95.05;89.38;;;5.80;98.90;;;;;;4894533;29;20071;-74
2023/10/18 07:51:28;;;;;;;95.47;89.65;;;5.80;98.50;;;;;;4888822;29;20053;-74
2023/10/18 07:53:54;;;;;;;95.32;89.63;;;5.90;97.90;;;;;;4884983;29;20709;-74
2023/10/18 07:56:31;;;;;;;88.53;83.28;;;6.00;97.70;;;;;;4884967;29;20076;-74
2023/10/18 08:01:51;;;;;;;116.63;110.13;;;6.10;97.90;;;;;;4885776;29;20188;-74
2023/10/18 08:04:20;;;;;;;88.70;83.53;;;6.20;97.50;;;;;;4873107;29;20084;-74
2023/10/18 08:06:50;;;;;;;90.82;85.40;;;6.30;97.50;;;;;;4897980;29;20107;-74
2023/10/18 08:09:28;;;;;;;84.05;78.70;;;6.30;96.50;;;;;;4901191;29;20040;-74
2023/10/18 08:12:05;;;;;;;134.73;127.30;;;6.40;96.40;;;;;;4881186;29;20127;-74
2023/10/18 08:14:32;;;;;;;125.72;118.78;;;6.50;96.70;;;;;;4878259;29;20032;-74
2023/10/18 08:17:08;;;;;;;110.50;104.20;;;6.50;96.20;;;;;;4891746;29;20048;-74
2023/10/18 08:19:43;;;;;;;;;;;6.60;95.70;;;;;;4890041;29;20084;-74
2023/10/18 08:24:49;;;;;;;75.73;70.83;;;6.70;93.50;;;;;;4888826;29;20398;-74
2023/10/18 08:27:15;;;;;;;114.63;108.10;;;6.80;94.40;;;;;;4893604;29;20048;-74
2023/10/18 08:29:46;;;;;;;86.05;80.80;;;6.80;93.60;;;;;;4873318;29;20077;-74
2023/10/18 08:32:15;;;;;;;99.43;93.68;;;6.80;92.80;;;;;;4905599;29;20049;-74
2023/10/18 08:34:45;;;;;;;96.82;91.20;;;6.90;92.20;;;;;;4878138;29;20044;-74
2023/10/18 08:37:13;;;;;;;101.65;96.03;;;6.90;91.80;;;;;;4889674;29;20127;-74
2023/10/18 08:39:55;;;;;;;125.85;119.07;;;7.00;91.10;;;;;;4877493;29;20076;-74
2023/10/18 08:42:30;;;;;;;80.03;75.20;;;7.00;91.50;;;;;;4887239;29;20045;-74
2023/10/18 08:44:55;;;;;;;146.65;138.82;;;7.10;92.20;;;;;;4878717;29;20036;-74
2023/10/18 08:47:29;;;;;;;82.80;77.90;;;7.10;90.60;;;;;;4898427;29;20386;-74
2023/10/18 08:49:55;;;;;;;83.30;78.25;;;7.20;90.70;;;;;;4890337;29;20057;-75
2023/10/18 08:52:24;;;;;;;78.10;73.40;;;7.20;90.90;;;;;;4896191;29;20095;-74
2023/10/18 08:54:51;;;;;;;84.78;79.85;;;7.30;91.30;;;;;;4876485;29;20036;-74
2023/10/18 08:57:38;;;;;;;86.60;81.65;;;7.40;90.80;;;;;;4878840;29;20041;-74
2023/10/18 09:02:50;;;;;;;;;;;7.50;89.10;;;;;;4890840;29;20068;-74
2023/10/18 09:05:19;;;;;;;77.93;73.35;;;7.60;89.30;;;;;;4889920;29;19982;-74
2023/10/18 09:07:45;;;;;;;98.38;93.00;;;7.60;89.50;;;;;;4877571;29;20047;-74
2023/10/18 09:15:28;;;;;;;77.82;73.10;;;7.80;88.20;;;;;;4884633;29;20044;-74
2023/10/18 09:17:56;;;;;;;102.13;96.75;;;7.80;88.30;;;;;;4902208;29;20040;-74
2023/10/18 09:20:26;;;;;;;85.05;80.10;;;7.90;88.60;;;;;;4882616;29;20040;-74
2023/10/18 09:23:01;;;;;;;111.45;105.65;;;7.90;87.70;;;;;;4885474;29;20084;-75
2023/10/18 09:25:47;;;;;;;;;;;8.00;87.70;;;;;;4878111;29;20047;-74
2023/10/18 09:28:25;;;;;;;131.75;125.05;;;8.10;85.60;;;;;;4899175;29;19929;-74
2023/10/18 09:31:00;;;;;;;98.95;93.68;;;8.10;86.60;;;;;;4881681;29;20549;-74
2023/10/18 09:33:31;;;;;;;113.75;107.57;;;8.20;85.00;;;;;;4879366;29;20037;-74
2023/10/18 09:36:01;;;;;;;99.63;94.32;;;8.30;85.30;;;;;;4871032;29;20079;-74
2023/10/18 09:38:41;;;;;;;102.05;96.85;;;8.40;85.60;;;;;;4888110;29;20096;-74
2023/10/18 09:41:07;;;;;;;96.57;91.47;;;8.50;85.20;;;;;;4883402;29;20163;-74
2023/10/18 09:43:36;;;;;;;82.50;77.95;;;8.50;84.90;;;;;;4884633;29;20049;-74
2023/10/18 09:46:03;;;;;;;91.60;86.82;;;8.60;85.10;;;;;;4877361;29;20446;-74
2023/10/18 09:48:32;;;;;;;118.13;112.25;;;8.70;84.30;;;;;;4872519;29;20045;-74
2023/10/18 09:51:09;;;;;;;132.63;126.05;;;8.70;83.00;;;;;;4877903;29;20108;-74
2023/10/18 09:53:41;;;;;;;98.43;93.22;;;8.80;83.30;;;;;;4880805;29;20055;-74
2023/10/18 09:56:12;;;;;;;96.10;91.15;;;8.80;82.80;;;;;;4899036;29;20085;-74
2023/10/18 09:58:43;;;;;;;123.05;116.82;;;8.90;83.70;;;;;;4893344;29;20052;-73
2023/10/18 10:01:14;;;;;;;128.75;122.28;;;9.00;83.70;;;;;;4878766;29;20052;-74
2023/10/18 10:03:50;;;;;;;114.50;108.55;;;9.00;82.10;;;;;;4887466;29;20078;-74
2023/10/18 10:06:22;;;;;;;78.80;74.40;;;9.00;82.20;;;;;;4880322;29;20041;-74
2023/10/18 10:09:02;;;;;;;92.07;87.32;;;9.10;81.10;;;;;;4889073;29;20076;-74
2023/10/18 10:11:38;;;;;;;124.03;117.32;;;9.10;80.90;;;;;;4875837;29;20489;-74
2023/10/18 10:14:07;;;;;;;105.80;100.47;;;9.20;81.30;;;;;;4887151;29;20529;-75
2023/10/18 10:16:36;;;;;;;114.93;108.50;;;9.30;81.30;;;;;;4882902;29;20048;-74
2023/10/18 10:19:11;;;;;;;144.15;137.02;;;9.30;78.80;;;;;;4891288;29;20045;-74
2023/10/18 10:21:37;;;;;;;146.07;138.68;;;9.40;79.70;;;;;;4872483;29;20044;-73
2023/10/18 10:24:07;;;;;;;100.82;95.60;;;9.50;80.30;;;;;;4875078;29;20349;-74
2023/10/18 10:26:35;;;;;;;155.05;147.13;;;9.50;79.90;;;;;;4878005;29;20124;-73
2023/10/18 10:31:51;;;;;;;84.50;80.13;;;9.70;78.60;;;;;;4883503;29;20414;-73
2023/10/18 10:34:41;;;;;;;86.38;81.57;;;9.80;80.00;;;;;;4885431;29;20040;-73
2023/10/18 10:37:11;;;;;;;126.47;120.10;;;9.90;79.30;;;;;;4892982;29;20514;-72
2023/10/18 10:39:44;;;;;;;108.82;103.32;;;9.90;77.20;;;;;;4893763;29;20048;-72
2023/10/18 10:45:32;;;;;;;123.35;116.65;;;10.00;77.00;;;;;;4901049;29;20044;-74
2023/10/18 10:48:18;;;;;;;88.77;84.27;;;10.00;76.10;;;;;;4905141;29;20048;-73
2023/10/18 10:51:23;;;;;;;94.43;89.67;;;10.10;78.00;;;;;;4880722;29;20525;-74
2023/10/18 10:53:57;;;;;;;78.33;74.33;;;10.20;78.90;;;;;;4889583;29;20301;-74
2023/10/18 10:56:33;;;;;;;104.15;99.00;;;10.20;77.30;;;;;;4885080;29;20337;-74
2023/10/18 11:01:43;;;;;;;;;;;10.30;77.00;;;;;;4912574;29;20293;-74
2023/10/18 11:04:24;;;;;;;91.40;86.80;;;10.30;76.60;;;;;;4881651;29;20026;-74
2023/10/18 11:06:56;;;;;;;81.63;77.43;;;10.40;77.10;;;;;;4889825;29;20845;-74
2023/10/18 11:09:34;;;;;;;86.77;82.17;;;10.50;77.60;;;;;;4882116;29;21092;-74
2023/10/18 11:12:08;;;;;;;123.90;117.63;;;10.50;77.40;;;;;;4879368;29;20377;-74
2023/10/18 11:14:37;;;;;;;84.03;79.53;;;10.50;76.40;;;;;;4886158;29;20324;-74
2023/10/18 11:17:09;;;;;;;75.17;71.17;;;10.40;75.40;;;;;;4898781;29;20353;-74
2023/10/18 11:19:40;;;;;;;73.33;69.27;;;10.50;75.70;;;;;;4884489;29;20307;-73
2023/10/18 11:22:13;;;;;;;108.23;102.80;;;10.50;76.30;;;;;;4896385;29;20517;-74
2023/10/18 11:24:39;;;;;;;104.73;99.33;;;10.50;75.40;;;;;;4893079;29;20289;-74
2023/10/18 11:27:09;;;;;;;99.93;94.63;;;10.60;75.00;;;;;;4900090;29;20378;-73
2023/10/18 11:29:38;;;;;;;124.13;118.07;;;10.60;75.60;;;;;;4886587;29;20308;-73
2023/10/18 11:32:07;;;;;;;71.97;68.27;;;10.70;75.80;;;;;;4890244;29;20297;-73
2023/10/18 11:34:40;;;;;;;113.73;107.73;;;10.70;76.60;;;;;;4885323;29;20320;-74
2023/10/18 11:37:08;;;;;;;104.27;99.10;;;10.80;75.90;;;;;;4896957;29;20281;-73
2023/10/18 11:39:34;;;;;;;69.27;65.77;;;10.70;73.40;;;;;;4894498;29;20652;-73
2023/10/18 11:42:00;;;;;;;70.57;66.47;;;10.70;74.00;;;;;;4903139;29;20284;-74
2023/10/18 11:44:34;;;;;;;61.87;58.33;;;10.80;73.80;;;;;;4887572;29;20327;-73
2023/10/18 11:47:18;;;;;;;62.93;59.37;;;10.80;75.10;;;;;;4884629;29;20308;-73
2023/10/18 11:49:45;;;;;;;67.32;63.55;;;10.90;76.00;;;;;;4901130;29;20312;-74
2023/10/18 11:52:16;;;;;;;74.57;70.37;;;10.90;73.30;;;;;;4894988;29;20509;-73
2023/10/18 11:54:43;;;;;;;87.30;82.27;;;10.90;73.50;;;;;;4886041;29;20321;-75
2023/10/18 11:57:24;;;;;;;76.63;72.43;;;10.90;73.40;;;;;;4875149;29;20714;-74
2023/10/18 11:59:57;;;;;;;78.17;73.97;;;10.90;72.60;;;;;;4898384;29;20289;-73
2023/10/18 12:02:28;;;;;;;274.33;257.43;;;10.90;73.40;;;;;;4902175;29;20340;-73
2023/10/18 12:04:57;;;;;;;67.93;64.30;;;10.90;72.30;;;;;;4883996;29;20793;-74
2023/10/18 12:07:24;;;;;;;84.60;80.10;;;10.90;73.60;;;;;;4881850;29;20288;-74
2023/10/18 12:09:54;;;;;;;63.50;59.93;;;10.90;73.30;;;;;;4895822;29;20375;-73
2023/10/18 12:12:20;;;;;;;80.97;76.90;;;10.90;72.60;;;;;;4897649;29;20294;-73
2023/10/18 12:14:47;;;;;;;77.33;73.23;;;11.00;73.50;;;;;;4883629;29;20295;-73
2023/10/18 12:17:14;;;;;;;69.63;66.03;;;11.00;74.40;;;;;;4895641;29;20040;-73
2023/10/18 12:19:41;;;;;;;108.10;102.60;;;11.10;73.50;;;;;;4920573;29;20288;-73
2023/10/18 12:22:09;;;;;;;68.47;64.77;;;11.10;74.50;;;;;;4913437;29;20292;-73
2023/10/18 12:24:37;;;;;;;72.33;68.63;;;11.10;72.60;;;;;;4888784;29;20343;-74
2023/10/18 12:27:18;;;;;;;78.57;74.60;;;11.10;73.10;;;;;;4905135;29;20281;-73
2023/10/18 12:29:45;;;;;;;170.93;161.53;;;11.20;73.80;;;;;;4904235;29;20288;-73
2023/10/18 12:32:26;;;;;;;64.73;61.23;;;11.30;72.90;;;;;;4890357;29;20336;-73
2023/10/18 12:34:58;;;;;;;146.77;138.17;;;11.30;73.00;;;;;;4896025;29;20292;-73
2023/10/18 12:37:25;;;;;;;83.57;79.33;;;11.40;73.00;;;;;;4898855;29;20746;-73
2023/10/18 12:39:51;;;;;;;69.50;65.87;;;11.40;73.40;;;;;;4881611;29;20285;-73
2023/10/18 12:42:19;;;;;;;94.57;89.70;;;11.60;73.90;;;;;;4909172;29;20371;-74
2023/10/18 12:44:48;;;;;;;89.63;85.13;;;11.70;72.40;;;;;;4895160;29;20057;-74
2023/10/18 12:47:21;;;;;;;84.30;80.00;;;11.70;71.60;;;;;;4895779;29;20356;-74
2023/10/18 12:49:51;;;;;;;97.30;92.40;;;11.80;71.60;;;;;;4905555;29;20300;-74
2023/10/18 12:53:16;;;;;;;74.47;70.17;;;11.90;71.50;;;;;;4890304;29;20293;-74
2023/10/18 12:55:32;;;;;;;78.83;74.83;;;12.00;71.70;;;;;;4908726;29;20295;-75
2023/10/18 12:57:59;;;;;;;60.73;57.33;;;12.10;71.40;;;;;;4908166;29;20304;-75
2023/10/18 13:00:26;;;;;;;78.00;74.03;;;12.20;70.50;;;;;;4891819;29;20325;-75
2023/10/18 13:05:22;;;;;;;67.80;64.33;;;12.30;68.40;;;;;;4904783;29;20312;-74
2023/10/18 13:07:52;;;;;;;71.03;67.50;;;12.20;67.60;;;;;;4886480;29;20793;-75
2023/10/18 13:10:35;;;;;;;74.40;70.70;;;12.30;67.90;;;;;;4906480;29;20352;-75
2023/10/18 13:13:16;;;;;;;73.50;69.73;;;12.30;69.50;;;;;;4897298;29;20277;-75
2023/10/18 13:15:46;;;;;;;135.93;128.67;;;12.30;69.00;;;;;;4887011;29;20348;-74
2023/10/18 13:18:14;;;;;;;111.33;104.87;;;12.20;67.60;;;;;;4874254;29;20284;-75
2023/10/18 13:20:45;;;;;;;76.17;72.47;;;12.10;68.10;;;;;;4909673;29;20300;-75
2023/10/18 13:23:12;;;;;;;65.70;62.30;;;12.20;67.00;;;;;;4890305;29;20296;-75
2023/10/18 13:25:54;;;;;;;71.33;67.87;;;12.20;67.90;;;;;;4888665;29;20292;-74
2023/10/18 13:28:59;;;;;;;82.37;78.13;;;12.30;69.40;;;;;;4883488;29;20299;-76
2023/10/18 13:31:18;;;;;;;74.73;71.03;;;12.30;68.60;;;;;;4898311;29;20411;-75
2023/10/18 13:34:06;;;;;;;115.00;108.93;;;12.20;68.50;;;;;;4904612;29;20808;-75
2023/10/18 13:36:36;;;;;;;83.00;79.00;;;12.10;67.40;;;;;;4887468;29;20285;-74
2023/10/18 13:39:11;;;;;;;118.80;112.63;;;12.00;68.20;;;;;;4886688;29;20348;-75
2023/10/18 13:41:39;;;;;;;66.73;63.30;;;11.90;67.70;;;;;;4884138;29;20299;-75
2023/10/18 13:44:08;;;;;;;95.63;90.60;;;11.80;68.00;;;;;;4891206;29;20832;-74